Time;durP1;ratioP1;P1;durP2;ratioP2;P2;SDS_P1;SDS_P2;PMS_P1;PMS_P2;Temp;Humidity;BMP_temperature;BMP_pressure;BME280_temperature;BME280_humidity;BME280_pressure;Samples;Min_cycle;Max_cycle;Signal;HPM_P1;HPM_P2
2021/07/09 00:01:12;;;;;;;9.70;7.15;;;;;;;18.41;80.57;96197.97;1763966;81;21481;-59
2021/07/09 00:03:38;;;;;;;9.10;7.40;;;;;;;18.42;80.33;96191.69;1763598;81;21045;-59
2021/07/09 00:06:05;;;;;;;9.08;7.03;;;;;;;18.39;79.86;96188.67;1763803;81;21074;-59
2021/07/09 00:08:32;;;;;;;7.85;6.95;;;;;;;18.34;79.88;96183.53;1763882;81;21131;-59
2021/07/09 00:10:59;;;;;;;9.93;7.62;;;;;;;18.27;81.00;96186.48;1763898;81;21017;-59
2021/07/09 00:13:26;;;;;;;12.60;8.38;;;;;;;18.18;81.24;96186.86;1763906;81;21010;-59
2021/07/09 00:15:53;;;;;;;8.83;7.85;;;;;;;18.24;80.88;96188.81;1763681;81;21058;-59
2021/07/09 00:18:19;;;;;;;10.40;7.10;;;;;;;18.22;81.44;96184.02;1764030;81;21042;-59
2021/07/09 00:20:46;;;;;;;10.30;7.92;;;;;;;18.21;81.45;96188.07;1764004;81;21472;-59
2021/07/09 00:23:13;;;;;;;11.30;7.55;;;;;;;18.19;81.37;96187.25;1764038;81;21042;-59
2021/07/09 00:25:39;;;;;;;10.00;7.80;;;;;;;18.26;81.30;96183.42;1763730;81;21515;-59
2021/07/09 00:28:06;;;;;;;9.25;8.10;;;;;;;18.30;81.03;96189.92;1763628;81;20983;-59
2021/07/09 00:30:32;;;;;;;9.45;7.12;;;;;;;18.32;80.75;96183.16;1764160;81;21002;-59
2021/07/09 00:32:59;;;;;;;8.53;7.53;;;;;;;18.26;80.22;96184.75;1763385;81;21062;-59
2021/07/09 00:35:25;;;;;;;11.03;7.67;;;;;;;18.16;80.38;96180.23;1763862;81;21476;-59
2021/07/09 00:37:54;;;;;;;7.87;6.60;;;;;;;18.12;80.68;96177.30;1763591;81;21034;-59
2021/07/09 00:40:21;;;;;;;10.20;7.28;;;;;;;18.07;80.11;96177.95;1764072;81;20995;-59
2021/07/09 00:42:47;;;;;;;9.53;7.25;;;;;;;18.02;80.21;96183.92;1763706;81;21034;-59
2021/07/09 00:45:15;;;;;;;9.25;7.53;;;;;;;18.00;81.31;96181.77;1763583;81;21090;-59
2021/07/09 00:47:47;;;;;;;10.25;7.87;;;;;;;17.96;80.98;96175.66;1763797;81;20987;-59
2021/07/09 00:50:16;;;;;;;8.93;7.80;;;;;;;17.95;80.43;96172.13;1763992;81;21049;-59
2021/07/09 00:52:43;;;;;;;9.08;7.55;;;;;;;17.91;80.80;96170.49;1764019;81;21527;-59
2021/07/09 00:55:12;;;;;;;8.10;7.30;;;;;;;17.83;81.33;96175.27;1763678;81;21033;-59
2021/07/09 00:57:42;;;;;;;9.03;7.58;;;;;;;17.82;81.37;96173.53;1763683;81;21527;-59
2021/07/09 01:00:13;;;;;;;7.75;6.95;;;;;;;17.76;81.62;96167.52;1764247;81;21077;-59
2021/07/09 01:02:40;;;;;;;11.33;7.83;;;;;;;17.74;81.56;96168.45;1763873;81;21018;-59
2021/07/09 01:05:10;;;;;;;7.33;6.42;;;;;;;17.77;81.75;96171.94;1763861;81;21492;-59
2021/07/09 01:07:37;;;;;;;9.08;7.50;;;;;;;17.74;81.06;96164.92;1763680;81;21555;-59
2021/07/09 01:10:11;;;;;;;7.65;6.85;;;;;;;17.71;81.09;96172.58;1763942;81;21083;-59
2021/07/09 01:12:40;;;;;;;10.80;7.97;;;;;;;17.64;81.35;96169.73;1763331;81;21022;-59
2021/07/09 01:15:10;;;;;;;8.23;6.70;;;;;;;17.70;81.25;96161.48;1763756;81;21086;-59
2021/07/09 01:17:38;;;;;;;11.73;8.80;;;;;;;17.65;81.49;96166.13;1763835;81;21094;-59
2021/07/09 01:20:09;;;;;;;10.28;8.03;;;;;;;17.63;81.55;96165.30;1735805;81;21074;-59
2021/07/09 01:22:42;;;;;;;9.70;6.92;;;;;;;17.62;81.54;96162.70;1763674;81;21090;-59
2021/07/09 01:25:11;;;;;;;8.13;6.78;;;;;;;17.64;81.58;96164.39;1764074;81;21066;-59
2021/07/09 01:27:40;;;;;;;7.78;6.87;;;;;;;17.57;80.95;96164.20;1763759;81;21477;-59
2021/07/09 01:30:12;;;;;;;9.30;7.22;;;;;;;17.48;80.64;96164.06;1763481;81;21011;-59
2021/07/09 01:32:38;;;;;;;8.83;6.72;;;;;;;17.42;81.70;96164.77;1763867;81;21018;-58
2021/07/09 01:35:08;;;;;;;9.35;7.42;;;;;;;17.39;82.19;96160.42;1763555;81;21556;-60
2021/07/09 01:37:35;;;;;;;8.50;6.17;;;;;;;17.40;81.71;96160.81;1763776;81;21580;-59
2021/07/09 01:40:09;;;;;;;12.88;6.80;;;;;;;17.42;81.41;96164.30;1763567;81;21070;-59
2021/07/09 01:42:37;;;;;;;13.40;6.97;;;;;;;17.39;81.30;96162.23;1760771;81;21560;-59
2021/07/09 01:45:07;;;;;;;7.85;6.72;;;;;;;17.34;81.92;96159.72;1763827;81;21058;-59
2021/07/09 01:47:34;;;;;;;9.03;6.62;;;;;;;17.32;81.66;96161.56;1763841;81;21054;-59
2021/07/09 01:50:04;;;;;;;9.23;6.70;;;;;;;17.27;81.67;96161.73;1763689;81;21034;-59
2021/07/09 01:52:31;;;;;;;9.23;5.95;;;;;;;17.23;82.17;96161.41;1763820;81;21078;-60
2021/07/09 01:54:59;;;;;;;6.22;5.62;;;;;;;17.25;81.78;96157.38;1763658;81;21018;-59
2021/07/09 01:57:27;;;;;;;7.60;5.72;;;;;;;17.19;81.76;96161.61;1764864;81;21022;-59
2021/07/09 01:59:56;;;;;;;8.98;6.58;;;;;;;17.12;82.20;96155.61;1770598;81;21022;-59
2021/07/09 02:02:23;;;;;;;7.45;6.53;;;;;;;17.14;81.74;96156.90;1770579;81;21057;-59
2021/07/09 02:04:54;;;;;;;9.40;6.30;;;;;;;17.13;82.42;96154.67;1770245;81;21101;-58
2021/07/09 02:07:25;;;;;;;7.55;5.80;;;;;;;17.17;82.07;96152.31;1770679;81;21523;-59
2021/07/09 02:09:58;;;;;;;7.53;6.72;;;;;;;17.11;81.84;96153.88;1770604;81;21110;-59
2021/07/09 02:12:27;;;;;;;10.75;6.58;;;;;;;17.04;82.55;96155.88;1770453;81;21002;-59
2021/07/09 02:14:54;;;;;;;9.53;7.08;;;;;;;17.09;82.39;96143.25;1770580;81;21061;-58
2021/07/09 02:17:23;;;;;;;7.28;6.12;;;;;;;17.04;82.21;96153.21;1770355;81;21061;-59
2021/07/09 02:19:51;;;;;;;9.38;6.53;;;;;;;16.99;82.39;96141.84;1770577;81;21077;-59
2021/07/09 02:22:20;;;;;;;10.95;5.47;;;;;;;16.99;82.25;96145.84;1770812;81;20990;-59
2021/07/09 02:24:49;;;;;;;8.15;7.10;;;;;;;16.96;81.83;96153.95;1770684;81;21026;-58
2021/07/09 02:27:17;;;;;;;8.53;6.30;;;;;;;16.95;81.90;96156.19;1770528;81;21049;-59
2021/07/09 02:29:44;;;;;;;8.65;6.60;;;;;;;16.91;82.34;96154.58;1770913;81;20970;-59
2021/07/09 02:32:13;;;;;;;8.75;6.35;;;;;;;16.89;82.27;96150.22;1770014;81;21014;-59
2021/07/09 02:34:40;;;;;;;7.75;6.87;;;;;;;16.82;82.84;96147.75;1770605;81;21014;-59
2021/07/09 02:37:09;;;;;;;8.35;6.75;;;;;;;16.80;82.29;96138.92;1770494;81;21070;-58
2021/07/09 02:39:37;;;;;;;11.08;8.15;;;;;;;16.83;82.18;96138.84;1770353;81;21014;-59
2021/07/09 02:42:04;;;;;;;12.58;9.75;;;;;;;16.79;82.63;96146.53;1770292;81;20990;-59
2021/07/09 02:44:31;;;;;;;9.20;6.83;;;;;;;16.83;82.71;96152.17;1770584;81;21045;-59
2021/07/09 02:46:57;;;;;;;11.78;7.15;;;;;;;16.89;82.42;96153.75;1770186;81;21539;-59
2021/07/09 02:49:24;;;;;;;9.48;7.15;;;;;;;16.85;82.35;96154.30;1770727;81;20954;-59
2021/07/09 02:51:51;;;;;;;9.75;6.90;;;;;;;16.93;82.52;96155.36;1770296;81;21069;-59
2021/07/09 02:54:18;;;;;;;8.98;7.53;;;;;;;17.01;82.21;96149.33;1770404;81;21039;-59
2021/07/09 02:56:45;;;;;;;9.78;6.75;;;;;;;17.07;82.01;96150.90;1770599;81;20990;-59
2021/07/09 02:59:14;;;;;;;11.35;7.15;;;;;;;17.11;81.59;96156.98;1765338;81;21013;-59
2021/07/09 03:01:41;;;;;;;12.33;7.12;;;;;;;17.01;81.45;96147.09;1763655;81;21106;-59
2021/07/09 03:04:09;;;;;;;10.38;7.25;;;;;;;16.97;81.44;96149.48;1763877;81;21496;-59
2021/07/09 03:06:36;;;;;;;7.53;6.15;;;;;;;16.94;81.61;96149.12;1763941;81;21563;-59
2021/07/09 03:09:06;;;;;;;8.05;5.60;;;;;;;16.91;81.33;96153.67;1763676;81;21109;-59
2021/07/09 03:11:34;;;;;;;8.43;6.42;;;;;;;16.84;81.74;96151.23;1764003;81;21073;-58
2021/07/09 03:14:03;;;;;;;7.40;6.15;;;;;;;16.78;81.89;96150.13;1763914;81;21018;-59
2021/07/09 03:16:30;;;;;;;8.78;6.25;;;;;;;16.76;82.37;96147.94;1764013;81;21107;-59
2021/07/09 03:18:56;;;;;;;9.93;6.53;;;;;;;16.77;82.73;96138.14;1764038;81;21014;-59
2021/07/09 03:21:23;;;;;;;11.18;6.42;;;;;;;16.78;82.45;96142.13;1763950;81;20994;-59
2021/07/09 03:23:49;;;;;;;8.30;6.12;;;;;;;16.87;82.24;96140.93;1764024;81;21042;-59
2021/07/09 03:26:16;;;;;;;8.78;7.17;;;;;;;16.85;82.38;96136.11;1761025;81;21025;-59
2021/07/09 03:28:42;;;;;;;7.65;6.87;;;;;;;16.93;82.43;96143.84;1763533;81;21113;-59
2021/07/09 03:31:09;;;;;;;8.10;7.30;;;;;;;17.02;82.00;96140.86;1763873;81;21093;-59
2021/07/09 03:33:35;;;;;;;9.00;7.15;;;;;;;17.13;81.84;96140.47;1763982;81;21090;-59
2021/07/09 03:36:04;;;;;;;8.30;6.95;;;;;;;17.26;81.42;96138.66;1763799;81;21094;-59
2021/07/09 03:38:32;;;;;;;8.70;6.83;;;;;;;17.30;80.90;96131.41;1763734;81;21114;-58
2021/07/09 03:40:58;;;;;;;8.10;6.53;;;;;;;17.42;81.10;96132.30;1764033;81;21041;-59
2021/07/09 03:43:25;;;;;;;7.33;6.30;;;;;;;17.53;80.49;96132.75;1763335;81;21185;-59
2021/07/09 03:45:51;;;;;;;8.23;7.40;;;;;;;17.64;80.48;96132.80;1763902;81;21477;-59
2021/07/09 03:48:18;;;;;;;12.53;6.40;;;;;;;17.68;79.96;96135.30;1764201;81;21058;-58
2021/07/09 03:50:44;;;;;;;9.63;7.37;;;;;;;17.74;79.63;96139.56;1763978;81;20982;-59
2021/07/09 03:53:11;;;;;;;8.10;7.30;;;;;;;17.77;79.56;96132.77;1764016;81;21022;-59
2021/07/09 03:55:37;;;;;;;8.03;6.78;;;;;;;17.92;79.79;96140.69;1763906;81;20982;-59
2021/07/09 03:58:04;;;;;;;9.75;7.83;;;;;;;18.09;79.74;96139.56;1764960;81;21548;-59
2021/07/09 04:00:30;;;;;;;8.43;7.53;;;;;;;18.15;78.90;96132.63;1770790;81;20974;-59
2021/07/09 04:02:57;;;;;;;9.28;7.28;;;;;;;18.23;78.57;96136.80;1770176;81;21034;-59
2021/07/09 04:05:24;;;;;;;10.15;7.40;;;;;;;18.35;78.62;96139.84;1770674;81;21465;-59
2021/07/09 04:07:50;;;;;;;8.30;7.50;;;;;;;18.40;78.25;96131.65;1770745;81;21046;-59
2021/07/09 04:10:17;;;;;;;10.88;8.10;;;;;;;18.54;78.26;96135.08;1770672;81;20994;-59
2021/07/09 04:12:44;;;;;;;9.10;7.97;;;;;;;18.54;78.26;96135.08;1770262;81;21526;-59
2021/07/09 04:15:11;;;;;;;8.20;7.40;;;;;;;18.63;77.86;96137.84;1770995;81;21029;-59
2021/07/09 04:17:38;;;;;;;9.38;7.53;;;;;;;18.65;77.59;96134.18;1770542;81;20998;-59
2021/07/09 04:20:07;;;;;;;7.70;6.75;;;;;;;18.76;76.76;96136.42;1770709;81;21014;-59
2021/07/09 04:22:34;;;;;;;11.93;7.45;;;;;;;18.76;76.76;96136.42;1770668;81;20994;-59
2021/07/09 04:25:01;;;;;;;9.25;7.70;;;;;;;18.85;77.14;96133.38;1770414;81;21054;-59
2021/07/09 04:27:28;;;;;;;11.65;7.45;;;;;;;18.94;77.09;96131.63;1770267;81;21102;-59
2021/07/09 04:29:54;;;;;;;7.37;6.67;;;;;;;19.08;77.15;96124.83;1770768;81;20970;-59
2021/07/09 04:32:21;;;;;;;8.98;6.97;;;;;;;19.08;77.15;96124.83;1770279;81;21034;-59
2021/07/09 04:34:47;;;;;;;7.50;6.75;;;;;;;19.23;76.92;96130.84;1770766;81;20989;-59
2021/07/09 04:37:14;;;;;;;8.40;7.08;;;;;;;19.32;76.29;96127.73;1770629;81;21014;-59
2021/07/09 04:39:40;;;;;;;7.78;6.97;;;;;;;19.36;75.96;96124.00;1770764;81;21535;-59
2021/07/09 04:42:07;;;;;;;9.68;6.85;;;;;;;19.47;76.17;96128.86;1770658;81;21018;-59
2021/07/09 04:44:35;;;;;;;10.30;7.47;;;;;;;19.56;75.93;96127.11;1770758;81;20970;-60
2021/07/09 04:47:02;;;;;;;9.75;7.00;;;;;;;19.59;74.95;96134.14;1770710;81;21017;-59
2021/07/09 04:49:29;;;;;;;7.62;6.83;;;;;;;19.64;74.70;96126.77;1770955;81;21038;-59
2021/07/09 04:51:55;;;;;;;8.10;7.03;;;;;;;19.75;75.04;96126.29;1770465;81;21544;-59
2021/07/09 04:54:22;;;;;;;8.35;7.53;;;;;;;19.85;75.18;96127.13;1770713;81;21017;-59
2021/07/09 04:56:49;;;;;;;11.18;8.40;;;;;;;19.93;75.12;96123.22;1770626;81;20994;-59
2021/07/09 04:59:16;;;;;;;10.80;7.40;;;;;;;19.99;74.81;96125.15;1770128;81;21073;-59
2021/07/09 05:01:42;;;;;;;8.25;7.15;;;;;;;20.01;74.54;96112.56;1770655;81;21045;-59
2021/07/09 05:04:09;;;;;;;8.63;6.87;;;;;;;20.04;74.70;96115.56;1770639;81;21037;-59
2021/07/09 05:06:36;;;;;;;16.90;6.40;;;;;;;20.13;74.74;96115.10;1770363;81;21085;-59
2021/07/09 05:09:08;;;;;;;14.93;6.97;;;;;;;20.20;74.35;96115.69;1770914;81;21030;-59
2021/07/09 05:11:35;;;;;;;10.68;5.70;;;;;;;20.26;74.24;96106.89;1770634;81;20978;-59
2021/07/09 05:14:02;;;;;;;9.83;5.90;;;;;;;20.34;74.37;96111.88;1770271;81;21073;-59
2021/07/09 05:16:29;;;;;;;7.30;5.45;;;;;;;20.44;74.28;96118.52;1770428;81;21053;-59
2021/07/09 05:18:56;;;;;;;8.43;4.37;;;;;;;20.49;73.73;96124.52;1770836;81;21425;-59
2021/07/09 05:21:25;;;;;;;10.63;5.42;;;;;;;20.64;73.98;96133.66;1770799;81;21053;-59
2021/07/09 05:23:52;;;;;;;4.78;4.37;;;;;;;20.73;73.21;96134.52;1770679;81;20970;-59
2021/07/09 05:26:19;;;;;;;5.72;4.67;;;;;;;20.85;73.13;96131.69;1770308;81;21094;-59
2021/07/09 05:28:48;;;;;;;9.78;5.05;;;;;;;20.96;72.64;96128.45;1770462;81;20982;-59
2021/07/09 05:31:16;;;;;;;6.97;4.80;;;;;;;21.05;72.63;96128.00;1770347;81;21077;-59
2021/07/09 05:33:43;;;;;;;6.20;4.35;;;;;;;21.20;72.58;96119.63;1770315;81;21039;-59
2021/07/09 05:36:10;;;;;;;5.92;4.58;;;;;;;21.28;71.92;96124.11;1770695;81;21026;-59
2021/07/09 05:38:37;;;;;;;6.92;4.97;;;;;;;21.39;71.76;96123.13;1770309;81;21057;-59
2021/07/09 05:41:03;;;;;;;6.55;5.00;;;;;;;21.48;71.92;96125.77;1770622;81;20970;-59
2021/07/09 05:43:30;;;;;;;8.55;4.60;;;;;;;21.63;71.67;96128.12;1770128;81;21100;-59
2021/07/09 05:45:56;;;;;;;6.93;5.20;;;;;;;21.76;69.80;96133.69;1770695;81;20990;-59
2021/07/09 05:48:23;;;;;;;7.53;5.35;;;;;;;21.88;70.12;96130.34;1770123;81;21038;-59
2021/07/09 05:50:50;;;;;;;7.33;5.35;;;;;;;21.99;69.80;96131.94;1770651;81;21524;-59
2021/07/09 05:53:17;;;;;;;7.87;5.12;;;;;;;22.10;69.66;96127.34;1770554;81;21117;-59
2021/07/09 05:55:45;;;;;;;6.85;5.55;;;;;;;22.20;69.37;96119.19;1770374;81;21049;-59
2021/07/09 05:58:11;;;;;;;7.78;5.15;;;;;;;22.29;68.04;96117.78;1770895;81;21033;-59
2021/07/09 06:00:40;;;;;;;8.50;4.80;;;;;;;22.35;67.96;96121.94;1770354;81;21005;-59
2021/07/09 06:03:06;;;;;;;6.22;5.47;;;;;;;22.38;66.83;96114.58;1770483;81;21018;-59
2021/07/09 06:05:33;;;;;;;8.95;5.55;;;;;;;22.42;65.53;96121.98;1770573;81;21101;-59
2021/07/09 06:08:05;;;;;;;8.05;4.58;;;;;;;22.44;64.94;96123.63;1770348;81;21543;-59
2021/07/09 06:10:32;;;;;;;7.73;5.20;;;;;;;22.52;65.83;96129.05;1770710;81;21515;-59
2021/07/09 06:12:59;;;;;;;9.43;4.80;;;;;;;22.56;66.54;96128.79;1770663;81;21061;-59
2021/07/09 06:15:27;;;;;;;5.72;5.22;;;;;;;22.63;65.73;96123.45;1770609;81;21002;-59
2021/07/09 06:17:53;;;;;;;5.47;4.60;;;;;;;22.72;64.96;96112.62;1770168;81;21125;-59
2021/07/09 06:20:20;;;;;;;5.83;4.95;;;;;;;22.74;62.54;96112.05;1770706;81;21522;-59
2021/07/09 06:22:47;;;;;;;7.22;4.87;;;;;;;22.76;64.40;96107.45;1770223;81;21113;-59
2021/07/09 06:25:17;;;;;;;6.53;5.08;;;;;;;22.79;64.32;96110.45;1770940;81;21001;-59
2021/07/09 06:27:44;;;;;;;6.58;5.05;;;;;;;22.88;63.92;96106.73;1770933;81;21057;-59
2021/07/09 06:30:12;;;;;;;5.97;5.20;;;;;;;22.94;64.09;96111.38;1770630;81;21460;-59
2021/07/09 06:32:39;;;;;;;9.30;5.28;;;;;;;22.99;64.23;96107.95;1770840;81;21101;-59
2021/07/09 06:35:09;;;;;;;6.28;4.87;;;;;;;23.05;64.48;96099.02;1770954;81;21030;-59
2021/07/09 06:37:37;;;;;;;6.58;4.85;;;;;;;23.16;64.35;96096.16;1770588;81;21081;-59
2021/07/09 06:40:07;;;;;;;8.75;5.25;;;;;;;23.23;63.98;96089.44;1771089;81;20990;-59
2021/07/09 06:42:34;;;;;;;5.87;5.00;;;;;;;23.21;64.02;96092.70;1770765;81;21091;-59
2021/07/09 06:45:01;;;;;;;11.05;6.15;;;;;;;23.31;64.54;96088.52;1770894;81;21033;-59
2021/07/09 06:47:28;;;;;;;5.42;4.92;;;;;;;23.41;64.75;96094.17;1770507;81;21098;-59
2021/07/09 06:49:54;;;;;;;6.58;5.87;;;;;;;23.49;64.60;96090.06;1771063;81;21010;-59
2021/07/09 06:52:21;;;;;;;5.80;5.30;;;;;;;23.55;64.93;96091.50;1770381;81;21506;-59
2021/07/09 06:54:48;;;;;;;7.45;5.35;;;;;;;23.62;64.60;96090.66;1770856;81;20998;-59
2021/07/09 06:57:14;;;;;;;7.70;5.72;;;;;;;23.65;63.91;96082.38;1770902;81;21022;-59
2021/07/09 06:59:42;;;;;;;8.40;5.58;;;;;;;23.73;64.27;96080.95;1770246;81;20998;-59
2021/07/09 07:02:09;;;;;;;6.55;5.80;;;;;;;23.79;64.38;96076.13;1770437;81;21002;-59
2021/07/09 07:04:35;;;;;;;6.28;5.55;;;;;;;23.84;63.15;96078.05;1771020;81;21006;-59
2021/07/09 07:07:03;;;;;;;6.80;5.53;;;;;;;23.90;63.50;96074.98;1770725;81;21018;-59
2021/07/09 07:09:32;;;;;;;6.67;5.65;;;;;;;23.94;63.48;96073.84;1770451;81;21129;-59
2021/07/09 07:12:02;;;;;;;7.10;5.65;;;;;;;24.06;63.08;96074.37;1770699;81;21540;-60
2021/07/09 07:14:29;;;;;;;6.03;5.42;;;;;;;24.14;63.65;96071.17;1770681;81;21022;-59
2021/07/09 07:16:56;;;;;;;5.65;4.87;;;;;;;24.29;63.31;96072.01;1770421;81;21528;-59
2021/07/09 07:19:22;;;;;;;6.05;5.45;;;;;;;24.33;62.16;96067.66;1770424;81;21033;-59
2021/07/09 07:21:49;;;;;;;11.40;5.10;;;;;;;24.47;63.16;96076.25;1770439;81;21030;-59
2021/07/09 07:24:15;;;;;;;6.33;5.12;;;;;;;24.56;62.41;96075.61;1770410;81;21587;-59
2021/07/09 07:26:42;;;;;;;6.75;5.50;;;;;;;24.61;62.24;96063.17;1770730;81;20981;-59
2021/07/09 07:29:08;;;;;;;8.40;5.55;;;;;;;24.72;63.17;96057.05;1770697;81;21053;-59
2021/07/09 07:31:35;;;;;;;7.67;5.53;;;;;;;24.83;62.93;96062.59;1770679;81;21062;-59
2021/07/09 07:34:01;;;;;;;8.68;5.58;;;;;;;24.86;61.03;96062.88;1770303;81;21050;-59
2021/07/09 07:36:28;;;;;;;9.80;5.40;;;;;;;24.92;61.57;96058.39;1771017;81;20998;-59
2021/07/09 07:38:54;;;;;;;7.87;5.45;;;;;;;24.98;62.19;96060.20;1770646;81;20986;-59
2021/07/09 07:41:22;;;;;;;5.80;5.20;;;;;;;25.09;62.60;96051.35;1770414;81;21022;-59
2021/07/09 07:43:49;;;;;;;5.97;5.12;;;;;;;25.21;61.67;96049.68;1770533;81;21492;-59
2021/07/09 07:46:16;;;;;;;5.65;4.87;;;;;;;25.32;63.10;96045.73;1770783;81;21002;-59
2021/07/09 07:48:44;;;;;;;6.95;5.42;;;;;;;25.44;60.66;96044.02;1770318;81;20990;-59
2021/07/09 07:51:10;;;;;;;11.60;5.67;;;;;;;25.54;61.32;96047.79;1770701;81;21476;-59
2021/07/09 07:53:37;;;;;;;5.87;5.17;;;;;;;25.66;60.77;96044.71;1770764;81;21146;-59
2021/07/09 07:56:06;;;;;;;8.35;5.72;;;;;;;25.79;61.94;96048.75;1770595;81;21015;-59
2021/07/09 07:58:36;;;;;;;5.90;5.33;;;;;;;25.93;61.88;96045.95;1770553;81;21110;-59
2021/07/09 08:01:03;;;;;;;5.20;4.70;;;;;;;26.03;60.12;96042.95;1764218;81;21106;-60
2021/07/09 08:03:29;;;;;;;7.35;4.92;;;;;;;26.10;59.53;96042.85;1764041;81;21504;-59
2021/07/09 08:05:55;;;;;;;8.33;5.33;;;;;;;26.25;60.49;96040.00;1764225;81;20982;-59
2021/07/09 08:08:22;;;;;;;7.22;5.78;;;;;;;26.36;59.94;96037.84;1763930;81;20959;-59
2021/07/09 08:10:49;;;;;;;7.25;5.30;;;;;;;26.42;59.63;96035.56;1763632;81;21668;-59
2021/07/09 08:13:16;;;;;;;8.23;5.00;;;;;;;26.45;58.53;96034.46;1763761;81;20983;-60
2021/07/09 08:15:42;;;;;;;6.10;5.50;;;;;;;26.50;59.80;96031.78;1763519;81;21082;-59
2021/07/09 08:18:09;;;;;;;7.15;5.62;;;;;;;26.61;59.36;96026.97;1763815;81;20995;-59
2021/07/09 08:20:37;;;;;;;7.87;5.78;;;;;;;26.78;58.43;96030.22;1763964;81;21009;-60
2021/07/09 08:23:04;;;;;;;5.47;4.97;;;;;;;26.89;59.02;96034.34;1763777;81;21038;-59
2021/07/09 08:25:30;;;;;;;7.22;5.45;;;;;;;26.96;57.87;96030.16;1763985;81;21002;-59
2021/07/09 08:27:57;;;;;;;5.42;4.92;;;;;;;27.04;57.53;96026.38;1763831;81;21062;-59
2021/07/09 08:30:23;;;;;;;6.85;5.40;;;;;;;27.15;58.52;96026.89;1763588;81;21124;-60
2021/07/09 08:32:50;;;;;;;6.03;5.35;;;;;;;27.31;58.38;96021.16;1764018;81;21045;-59
2021/07/09 08:35:16;;;;;;;6.70;5.00;;;;;;;27.40;57.20;96026.72;1763655;81;21138;-59
2021/07/09 08:37:43;;;;;;;6.00;4.67;;;;;;;27.42;56.73;96017.13;1763901;81;21472;-59
2021/07/09 08:40:12;;;;;;;6.37;5.45;;;;;;;27.45;57.01;96025.02;1763852;81;21072;-59
2021/07/09 08:42:39;;;;;;;6.40;5.05;;;;;;;27.54;56.87;96014.80;1763895;81;21041;-59
2021/07/09 08:45:07;;;;;;;6.90;5.60;;;;;;;27.65;56.24;96022.07;1763647;81;20959;-59
2021/07/09 08:47:36;;;;;;;6.17;5.67;;;;;;;27.76;56.55;96023.91;1763905;81;21069;-59
2021/07/09 08:50:06;;;;;;;7.80;5.42;;;;;;;27.90;57.35;96016.92;1763857;81;21062;-59
2021/07/09 08:52:37;;;;;;;6.03;5.22;;;;;;;27.97;56.43;96017.27;1764081;81;21062;-59
2021/07/09 08:55:11;;;;;;;7.08;5.53;;;;;;;28.09;56.03;96018.98;1763897;81;21573;-59
2021/07/09 08:57:36;;;;;;;6.20;5.58;;;;;;;28.15;54.71;96016.25;1763655;81;21034;-59
2021/07/09 09:00:06;;;;;;;6.67;5.33;;;;;;;28.18;54.05;96013.31;1765948;81;21058;-59
2021/07/09 09:02:33;;;;;;;6.25;5.33;;;;;;;28.23;53.66;96014.65;1770614;81;21507;-59
2021/07/09 09:04:59;;;;;;;9.55;5.78;;;;;;;28.27;54.42;96008.46;1770672;81;21018;-59
2021/07/09 09:07:29;;;;;;;6.80;5.47;;;;;;;28.44;55.20;96008.42;1770375;81;21516;-59
2021/07/09 09:09:56;;;;;;;6.83;5.40;;;;;;;28.53;53.40;96000.06;1770727;81;21492;-59
2021/07/09 09:12:23;;;;;;;7.40;5.78;;;;;;;28.56;53.51;95997.94;1770417;81;20994;-59
2021/07/09 09:14:53;;;;;;;6.83;5.33;;;;;;;28.66;53.50;95993.95;1770732;81;21030;-59
2021/07/09 09:17:26;;;;;;;;;;;;;;;28.70;53.57;95999.47;1771931;81;21050;-59
2021/07/09 09:20:15;;;;;;;5.80;5.20;;;;;;;28.79;54.03;95990.55;1770687;81;20134;-59
2021/07/09 09:22:54;;;;;;;9.00;6.08;;;;;;;28.92;53.75;95991.72;1770771;81;21064;-59
2021/07/09 09:25:27;;;;;;;6.45;5.85;;;;;;;29.10;54.28;95994.73;1770388;81;21033;-60
2021/07/09 09:28:05;;;;;;;6.25;5.75;;;;;;;29.15;53.13;95992.98;1770641;81;21527;-59
2021/07/09 09:30:34;;;;;;;6.72;5.78;;;;;;;29.14;52.27;95988.05;1770690;81;21018;-59
2021/07/09 09:33:09;;;;;;;7.53;5.80;;;;;;;29.25;54.03;95991.19;1770638;81;21595;-59
2021/07/09 09:35:42;;;;;;;6.75;5.97;;;;;;;29.39;52.94;95985.92;1770730;81;21074;-59
2021/07/09 09:38:12;;;;;;;6.28;5.67;;;;;;;29.49;53.68;95991.77;1770657;81;21022;-59
2021/07/09 09:40:43;;;;;;;10.35;6.50;;;;;;;29.60;52.33;95983.16;1770492;81;21082;-59
2021/07/09 09:43:21;;;;;;;6.78;5.95;;;;;;;29.76;54.46;95993.94;1770521;81;21037;-59
2021/07/09 09:46:06;;;;;;;9.63;5.80;;;;;;;29.80;51.24;95986.35;1770761;81;21037;-59
2021/07/09 09:48:45;;;;;;;7.12;5.65;;;;;;;29.84;51.88;95996.48;1770118;81;21090;-59
2021/07/09 09:51:34;;;;;;;6.33;5.53;;;;;;;29.89;50.62;95984.69;1769190;81;21014;-59
2021/07/09 09:54:03;;;;;;;6.67;6.10;;;;;;;30.01;52.34;95992.22;1770704;81;21007;-59
2021/07/09 09:56:46;;;;;;;6.53;5.70;;;;;;;30.00;50.40;95990.00;1770623;81;21013;-59
2021/07/09 09:59:24;;;;;;;7.50;6.20;;;;;;;29.97;49.71;95992.50;1770738;81;21065;-59
2021/07/09 10:02:05;;;;;;;6.45;5.60;;;;;;;29.93;51.70;95992.91;1763821;81;21073;-59
2021/07/09 10:04:34;;;;;;;6.40;5.10;;;;;;;30.13;50.19;95987.88;1763927;81;21023;-59
2021/07/09 10:07:01;;;;;;;6.35;5.05;;;;;;;30.07;49.08;95985.73;1763876;81;21013;-59
2021/07/09 10:09:29;;;;;;;6.45;5.15;;;;;;;30.20;48.48;95978.17;1763594;81;21070;-59
2021/07/09 10:11:58;;;;;;;7.55;5.55;;;;;;;30.31;49.02;95976.36;1763579;81;21460;-59
2021/07/09 10:14:29;;;;;;;6.70;5.50;;;;;;;30.40;50.26;95972.80;1763727;81;21054;-59
2021/07/09 10:17:00;;;;;;;8.83;6.50;;;;;;;30.46;48.91;95971.36;1763898;81;20958;-59
2021/07/09 10:19:38;;;;;;;6.22;5.40;;;;;;;30.27;49.60;95978.52;1763862;81;21041;-59
2021/07/09 10:22:13;;;;;;;6.92;6.15;;;;;;;30.38;48.90;95980.23;1763969;81;21480;-59
2021/07/09 10:24:45;;;;;;;6.05;4.65;;;;;;;30.51;47.97;95978.09;1736721;81;21017;-59
2021/07/09 10:27:13;;;;;;;10.10;5.58;;;;;;;30.76;48.22;95977.19;1763744;81;21002;-59
2021/07/09 10:29:45;;;;;;;6.45;5.85;;;;;;;30.85;46.40;95972.28;1763333;81;21010;-59
2021/07/09 10:32:13;;;;;;;6.00;5.40;;;;;;;30.71;45.27;95963.99;1764003;81;21025;-59
2021/07/09 10:34:49;;;;;;;7.72;6.10;;;;;;;30.73;48.04;95964.71;1763890;81;21489;-59
2021/07/09 10:37:29;;;;;;;6.35;5.17;;;;;;;30.92;48.21;95961.16;1763714;81;21125;-59
2021/07/09 10:40:04;;;;;;;6.50;5.53;;;;;;;31.07;48.61;95963.42;1762925;81;21010;-59
2021/07/09 10:42:40;;;;;;;5.95;5.45;;;;;;;31.17;47.13;95964.27;1759130;81;21050;-59
2021/07/09 10:45:25;;;;;;;5.67;5.00;;;;;;;31.19;46.43;95963.11;1763835;81;21513;-59
2021/07/09 10:48:12;;;;;;;6.20;5.60;;;;;;;31.14;45.06;95957.23;1763833;81;21018;-59
2021/07/09 10:50:51;;;;;;;10.20;5.65;;;;;;;31.24;43.87;95947.17;1763709;81;20975;-59
2021/07/09 10:53:29;;;;;;;5.85;5.05;;;;;;;31.31;45.53;95948.81;1763700;81;21022;-59
2021/07/09 10:56:02;;;;;;;7.03;5.70;;;;;;;31.42;44.59;95945.93;1763989;81;21033;-59
2021/07/09 10:58:44;;;;;;;8.73;5.25;;;;;;;31.52;45.92;95940.45;1763600;81;21081;-59
2021/07/09 11:01:16;;;;;;;;;;;;;;;31.68;43.43;95943.41;1766475;81;21030;-59
2021/07/09 11:03:57;;;;;;;8.08;5.83;;;;;;;31.64;43.61;95947.95;1763588;81;20581;-60
2021/07/09 11:06:36;;;;;;;6.28;5.67;;;;;;;31.15;45.04;95946.71;1763566;81;21045;-59
2021/07/09 11:09:06;;;;;;;6.03;5.28;;;;;;;31.11;46.12;95952.59;1763639;81;21066;-59
2021/07/09 11:11:51;;;;;;;5.75;5.25;;;;;;;31.29;45.43;95948.09;1763724;81;20998;-59
2021/07/09 11:14:35;;;;;;;6.10;5.60;;;;;;;31.17;45.61;95943.34;1763634;81;21082;-60
2021/07/09 11:17:18;;;;;;;7.58;5.53;;;;;;;31.31;46.10;95937.91;1764202;81;21516;-59
2021/07/09 11:19:45;;;;;;;7.15;5.50;;;;;;;31.37;44.51;95937.81;1761064;81;21066;-59
2021/07/09 11:22:14;;;;;;;5.55;4.97;;;;;;;31.59;46.00;95942.08;1763877;81;21023;-60
2021/07/09 11:24:56;;;;;;;8.65;5.95;;;;;;;31.75;44.83;95938.70;1763892;81;21563;-59
2021/07/09 11:27:25;;;;;;;9.63;6.00;;;;;;;31.97;45.51;95934.75;1763879;81;21050;-59
2021/07/09 11:30:01;;;;;;;5.80;5.30;;;;;;;32.07;43.18;95938.28;1763929;81;21014;-59
2021/07/09 11:32:29;;;;;;;7.45;5.90;;;;;;;32.17;43.02;95928.67;1763720;81;21034;-59
2021/07/09 11:34:57;;;;;;;9.53;5.50;;;;;;;32.36;43.40;95927.19;1763662;81;20987;-59
2021/07/09 11:37:27;;;;;;;7.22;6.53;;;;;;;32.58;43.07;95923.14;1764022;81;21058;-59
2021/07/09 11:40:00;;;;;;;8.10;5.90;;;;;;;32.77;42.57;95923.50;1763629;81;21007;-59